Time;durP1;ratioP1;P1;durP2;ratioP2;P2;SDS_P1;SDS_P2;PMS_P1;PMS_P2;Temp;Humidity;BMP_temperature;BMP_pressure;BME280_temperature;BME280_humidity;BME280_pressure;Samples;Min_cycle;Max_cycle;Signal;HPM_P1;HPM_P2
2022/03/18 00:00:16;;;;;;;45.47;14.20;;;;;;;38.51;44.44;100824.81;5058817;28;20457;-72
2022/03/18 00:02:43;;;;;;;32.10;14.37;;;;;;;38.58;44.64;100827.09;5059716;28;20452;-71
2022/03/18 00:05:09;;;;;;;41.30;14.13;;;;;;;38.55;44.37;100827.69;5082116;28;20440;-72
2022/03/18 00:07:35;;;;;;;37.07;11.80;;;;;;;38.65;43.72;100827.44;5054812;28;20420;-72
2022/03/18 00:10:01;;;;;;;38.73;13.17;;;;;;;38.87;43.81;100830.13;5054814;28;20398;-71
2022/03/18 00:12:27;;;;;;;35.77;13.37;;;;;;;38.72;44.09;100827.00;5072433;28;20394;-71
2022/03/18 00:18:15;;;;;;;52.33;16.20;;;;;;;38.63;44.53;100816.91;5072265;28;20468;-72
2022/03/18 00:20:41;;;;;;;36.53;14.50;;;;;;;38.64;44.30;100823.13;5054391;28;20434;-72
2022/03/18 00:23:07;;;;;;;34.60;10.30;;;;;;;38.73;44.46;100807.72;5054693;28;20512;-71
2022/03/18 00:25:34;;;;;;;33.13;12.40;;;;;;;38.61;44.63;100807.47;5054117;28;20437;-71
2022/03/18 00:28:00;;;;;;;40.40;14.17;;;;;;;38.68;44.95;100805.94;5072349;28;20425;-71
2022/03/18 00:30:26;;;;;;;29.90;12.13;;;;;;;38.87;44.38;100802.22;5072012;28;20445;-74
2022/03/18 00:32:53;;;;;;;30.07;12.83;;;;;;;38.78;44.67;100793.22;5054344;28;20421;-71
2022/03/18 00:35:19;;;;;;;25.00;14.03;;;;;;;38.71;44.53;100788.22;5054097;28;20445;-71
2022/03/18 00:37:45;;;;;;;20.77;10.17;;;;;;;38.61;44.86;100789.31;5054119;28;20496;-71
2022/03/18 00:40:12;;;;;;;31.43;15.73;;;;;;;38.74;44.43;100784.94;5073976;28;20483;-71
2022/03/18 00:42:38;;;;;;;38.50;14.23;;;;;;;38.62;44.32;100782.78;5073999;28;20421;-72
2022/03/18 00:45:05;;;;;;;24.90;10.67;;;;;;;38.74;43.92;100781.44;5074205;28;20445;-72
2022/03/18 00:53:02;;;;;;;36.80;10.47;;;;;;;38.85;43.71;100772.66;5092316;28;20396;-72
2022/03/18 00:55:28;;;;;;;37.53;12.20;;;;;;;38.72;43.58;100770.88;5073912;28;20460;-72
2022/03/18 00:57:55;;;;;;;27.87;11.87;;;;;;;38.75;43.53;100764.03;5073900;28;20461;-72
2022/03/18 01:00:21;;;;;;;35.70;13.13;;;;;;;38.71;43.99;100763.84;5073933;28;20449;-72
2022/03/18 01:02:48;;;;;;;31.73;11.13;;;;;;;38.57;44.68;100758.53;5073821;28;20923;-72
2022/03/18 01:05:14;;;;;;;45.40;12.40;;;;;;;38.58;44.39;100749.28;5073851;28;20417;-71
2022/03/18 01:07:40;;;;;;;37.87;12.63;;;;;;;38.51;44.57;100743.50;5073898;28;20930;-72
2022/03/18 01:10:07;;;;;;;33.67;12.57;;;;;;;38.67;44.00;100744.69;5073613;28;20815;-72
2022/03/18 01:12:33;;;;;;;24.73;10.60;;;;;;;38.60;44.06;100736.19;5092068;28;20442;-73
2022/03/18 01:14:59;;;;;;;34.93;12.00;;;;;;;38.52;44.44;100736.19;5092029;28;20401;-72
2022/03/18 01:17:26;;;;;;;34.67;11.50;;;;;;;38.41;44.66;100727.53;5073776;28;20508;-71
2022/03/18 01:19:52;;;;;;;26.43;11.97;;;;;;;38.43;44.48;100719.91;5092007;28;20413;-73
2022/03/18 01:22:18;;;;;;;29.37;10.73;;;;;;;38.62;44.20;100715.03;5073724;28;20417;-72
2022/03/18 01:24:44;;;;;;;32.03;12.07;;;;;;;38.58;44.51;100727.59;5073729;28;20451;-72
2022/03/18 01:27:10;;;;;;;34.43;10.63;;;;;;;38.63;44.44;100708.47;5073673;28;20984;-73
2022/03/18 01:29:37;;;;;;;40.03;12.70;;;;;;;38.58;44.72;100718.66;5073696;28;20417;-72
2022/03/18 01:32:03;;;;;;;37.83;13.67;;;;;;;38.54;44.69;100715.75;5073762;28;20459;-72
2022/03/18 01:34:29;;;;;;;36.93;14.53;;;;;;;38.52;44.82;100712.59;5073538;28;20427;-71
2022/03/18 01:36:55;;;;;;;26.70;11.80;;;;;;;38.48;45.27;100717.03;5091886;28;20752;-71
2022/03/18 01:39:22;;;;;;;59.10;13.83;;;;;;;38.46;44.97;100716.53;5091803;28;20460;-71
2022/03/18 01:41:49;;;;;;;34.77;13.40;;;;;;;38.66;44.29;100712.47;5073466;28;20792;-73
2022/03/18 01:44:16;;;;;;;23.70;11.00;;;;;;;38.61;44.73;100713.44;5073652;28;20456;-72
2022/03/18 01:46:42;;;;;;;39.33;14.57;;;;;;;38.61;44.47;100710.72;5092006;28;20412;-71
2022/03/18 01:49:08;;;;;;;36.97;11.67;;;;;;;38.68;44.54;100704.81;5073343;28;20441;-72
2022/03/18 01:51:35;;;;;;;25.43;12.90;;;;;;;38.60;44.76;100708.28;5091756;28;20945;-72
2022/03/18 01:56:46;;;;;;;38.50;12.53;;;;;;;38.61;44.59;100707.19;5091257;28;20541;-73
2022/03/18 01:59:13;;;;;;;33.23;12.10;;;;;;;38.61;44.73;100705.28;5073409;28;20461;-72
2022/03/18 02:01:39;;;;;;;35.90;13.33;;;;;;;38.49;44.55;100709.69;5074666;28;20424;-71
2022/03/18 02:04:06;;;;;;;30.80;13.93;;;;;;;38.23;45.57;100704.13;5076927;28;20527;-71
2022/03/18 02:06:33;;;;;;;31.93;12.00;;;;;;;38.28;45.36;100704.03;5077107;28;20422;-71
2022/03/18 02:08:59;;;;;;;41.13;14.87;;;;;;;38.15;45.36;100700.28;5060452;28;20415;-71
2022/03/18 02:11:28;;;;;;;34.60;12.70;;;;;;;38.16;45.63;100705.38;5076898;28;20954;-71
2022/03/18 02:13:57;;;;;;;49.67;15.53;;;;;;;38.36;44.99;100695.13;5076957;28;20452;-72
2022/03/18 02:16:24;;;;;;;34.50;12.73;;;;;;;38.37;45.26;100702.19;5076869;28;20413;-72
2022/03/18 02:18:50;;;;;;;46.63;14.20;;;;;;;38.54;45.12;100696.78;5076832;28;20463;-73
2022/03/18 02:21:17;;;;;;;27.20;13.03;;;;;;;38.39;45.09;100683.69;5075875;28;20566;-73
2022/03/18 02:23:44;;;;;;;27.27;12.67;;;;;;;38.39;45.17;100679.06;5076755;28;20417;-73
2022/03/18 02:26:15;;;;;;;35.73;15.83;;;;;;;38.40;45.01;100679.88;5076970;28;20547;-73
2022/03/18 02:28:42;;;;;;;33.63;11.60;;;;;;;38.50;44.95;100674.16;5076680;28;20554;-72
2022/03/18 02:31:08;;;;;;;47.67;14.27;;;;;;;38.56;45.04;100667.47;5076735;28;20933;-72
2022/03/18 02:33:34;;;;;;;24.23;13.07;;;;;;;38.57;44.88;100668.28;5076535;28;20421;-72
2022/03/18 02:36:00;;;;;;;30.93;12.13;;;;;;;38.51;45.07;100661.41;5076554;28;20794;-73
2022/03/18 02:38:27;;;;;;;40.87;15.20;;;;;;;38.39;45.46;100657.38;5094671;28;20939;-72
2022/03/18 02:40:53;;;;;;;25.37;12.90;;;;;;;38.61;44.61;100651.09;5076384;28;20416;-71
2022/03/18 02:43:19;;;;;;;21.93;10.70;;;;;;;38.49;45.14;100647.34;5094706;28;20397;-71
2022/03/18 02:45:46;;;;;;;38.17;14.70;;;;;;;38.53;45.36;100651.84;5094777;28;20435;-71
2022/03/18 02:48:12;;;;;;;32.30;12.23;;;;;;;38.33;45.56;100649.72;5094865;28;20431;-73
2022/03/18 02:50:38;;;;;;;30.67;13.30;;;;;;;38.18;46.52;100646.31;5059774;28;20416;-72
2022/03/18 02:53:04;;;;;;;32.40;12.23;;;;;;;38.37;45.84;100648.78;5094186;28;20452;-72
2022/03/18 02:55:30;;;;;;;42.73;13.87;;;;;;;38.46;45.41;100645.28;5076060;28;20472;-72
2022/03/18 02:57:56;;;;;;;30.13;12.07;;;;;;;38.57;45.13;100641.97;5075985;28;20541;-74
2022/03/18 03:00:25;;;;;;;32.17;12.60;;;;;;;38.53;45.48;100646.41;5075638;28;20468;-72
2022/03/18 03:02:52;;;;;;;43.00;13.13;;;;;;;38.46;45.67;100639.88;5076020;28;20440;-74
2022/03/18 03:08:02;;;;;;;45.27;14.70;;;;;;;38.30;45.22;100645.72;5079059;28;20389;-71
2022/03/18 03:10:34;;;;;;;42.23;12.30;;;;;;;38.41;45.05;100643.53;5059338;28;20449;-71
2022/03/18 03:13:06;;;;;;;34.57;15.17;;;;;;;38.58;44.58;100642.78;5075333;28;20880;-71
2022/03/18 03:15:33;;;;;;;58.93;14.10;;;;;;;38.38;45.02;100644.16;5075885;28;20433;-73
2022/03/18 03:17:59;;;;;;;28.60;12.10;;;;;;;38.46;45.11;100629.03;5093853;28;21100;-72
2022/03/18 03:20:26;;;;;;;29.57;12.03;;;;;;;38.53;44.88;100638.28;5075599;28;20942;-73
2022/03/18 03:22:52;;;;;;;33.67;13.30;;;;;;;38.63;44.63;100639.91;5075761;28;20453;-73
2022/03/18 03:25:18;;;;;;;33.03;13.90;;;;;;;38.60;44.57;100648.66;5075371;28;20456;-73
2022/03/18 03:27:44;;;;;;;24.53;12.40;;;;;;;38.41;44.40;100648.94;5075668;28;20486;-74
2022/03/18 03:30:12;;;;;;;38.20;14.40;;;;;;;38.67;44.25;100635.44;5075606;28;20424;-72
2022/03/18 03:32:38;;;;;;;27.80;13.27;;;;;;;38.49;44.46;100642.75;5093708;28;20484;-72
2022/03/18 03:35:06;;;;;;;34.13;11.50;;;;;;;38.55;44.71;100637.97;5075391;28;20577;-72
2022/03/18 03:37:32;;;;;;;31.07;11.53;;;;;;;38.57;44.66;100646.59;5075393;28;20416;-71
2022/03/18 03:39:58;;;;;;;38.10;15.20;;;;;;;38.49;44.85;100637.34;5093637;28;20397;-72
2022/03/18 03:42:25;;;;;;;40.90;10.83;;;;;;;38.69;44.06;100650.28;5075294;28;20432;-74
2022/03/18 03:44:51;;;;;;;24.73;13.13;;;;;;;38.65;44.64;100651.22;5075073;28;20428;-72
2022/03/18 03:47:17;;;;;;;36.60;15.50;;;;;;;38.69;44.69;100653.00;5075291;28;20425;-72
2022/03/18 03:49:44;;;;;;;24.20;11.57;;;;;;;38.65;44.36;100646.59;5075055;28;20448;-72
2022/03/18 03:52:11;;;;;;;34.37;13.10;;;;;;;38.34;45.34;100643.19;5093444;28;20389;-72
2022/03/18 03:54:38;;;;;;;35.80;12.50;;;;;;;38.55;44.60;100644.22;5074858;28;20511;-72
2022/03/18 03:57:05;;;;;;;39.37;11.43;;;;;;;37.92;46.11;100645.38;5074990;28;20939;-72
2022/03/18 03:59:31;;;;;;;44.67;14.03;;;;;;;38.34;45.37;100649.41;5074819;28;20816;-73
2022/03/18 04:01:58;;;;;;;31.70;14.37;;;;;;;38.36;45.20;100651.78;5093123;28;20454;-72
2022/03/18 04:04:25;;;;;;;33.73;10.80;;;;;;;38.17;45.83;100650.09;5074881;28;20417;-72
2022/03/18 04:06:52;;;;;;;27.20;12.27;;;;;;;38.11;45.69;100645.13;5093092;28;20389;-72
2022/03/18 04:09:18;;;;;;;34.00;14.40;;;;;;;38.26;45.71;100644.75;5074706;28;20500;-72
2022/03/18 04:11:44;;;;;;;43.50;13.90;;;;;;;37.94;46.18;100643.16;5074622;28;20413;-72
2022/03/18 04:14:11;;;;;;;31.73;11.80;;;;;;;38.04;45.30;100650.19;5074514;28;20420;-72
2022/03/18 04:16:37;;;;;;;37.07;13.77;;;;;;;38.03;45.27;100656.72;5074713;28;20866;-71
2022/03/18 04:19:03;;;;;;;39.53;13.50;;;;;;;38.14;45.20;100656.16;5074604;28;20467;-73
2022/03/18 04:21:30;;;;;;;33.50;14.10;;;;;;;38.21;45.00;100650.28;5074548;28;20433;-73
2022/03/18 04:23:56;;;;;;;33.53;12.10;;;;;;;38.34;44.58;100646.69;5074522;28;20412;-73
2022/03/18 04:26:24;;;;;;;37.10;12.50;;;;;;;38.13;44.88;100643.72;5073331;28;21020;-72
2022/03/18 04:28:51;;;;;;;23.87;11.40;;;;;;;38.23;45.26;100648.03;5091260;28;20417;-72
2022/03/18 04:31:17;;;;;;;31.53;10.70;;;;;;;38.10;45.56;100649.75;5074797;28;20469;-72
2022/03/18 04:33:43;;;;;;;36.67;15.00;;;;;;;37.87;45.83;100649.00;5074303;28;20520;-72
2022/03/18 04:36:09;;;;;;;48.63;15.03;;;;;;;37.83;45.87;100652.66;5074412;28;20443;-73
2022/03/18 04:38:35;;;;;;;26.77;13.33;;;;;;;38.08;45.86;100651.97;5074048;28;20543;-74
2022/03/18 04:41:02;;;;;;;26.93;12.53;;;;;;;38.01;45.61;100650.84;5074100;28;20451;-72
2022/03/18 04:43:28;;;;;;;37.23;15.90;;;;;;;37.83;46.27;100656.16;5074339;28;20992;-72
2022/03/18 04:45:54;;;;;;;28.73;12.27;;;;;;;37.85;45.83;100653.94;5074018;28;20460;-71
2022/03/18 04:48:21;;;;;;;41.73;14.53;;;;;;;38.03;45.55;100649.41;5074049;28;20417;-73
2022/03/18 04:50:47;;;;;;;32.57;11.97;;;;;;;38.14;45.30;100658.06;5073960;28;20977;-72
2022/03/18 04:53:13;;;;;;;23.23;14.07;;;;;;;38.08;45.54;100662.03;5073766;28;20433;-71
2022/03/18 04:55:40;;;;;;;36.80;12.77;;;;;;;38.27;45.54;100659.09;5091679;28;20547;-71
2022/03/18 04:58:06;;;;;;;34.33;13.43;;;;;;;38.12;45.92;100661.09;5073875;28;20847;-72
2022/03/18 05:00:32;;;;;;;19.97;10.07;;;;;;;38.02;45.82;100666.78;5074060;28;20420;-73
2022/03/18 05:02:58;;;;;;;41.60;16.07;;;;;;;38.10;45.70;100671.41;5073807;28;20428;-72
2022/03/18 05:05:24;;;;;;;31.27;14.50;;;;;;;38.12;45.81;100671.94;5092055;28;20441;-73
2022/03/18 05:07:51;;;;;;;31.27;12.87;;;;;;;38.22;45.50;100678.16;5074114;28;20416;-74
2022/03/18 05:10:19;;;;;;;25.20;12.90;;;;;;;38.21;45.56;100677.38;5074261;28;20396;-72
2022/03/18 05:12:46;;;;;;;36.70;13.43;;;;;;;38.26;45.15;100679.16;5057326;28;20425;-72
2022/03/18 05:15:13;;;;;;;36.97;16.50;;;;;;;38.40;44.89;100680.66;5073816;28;20486;-72
2022/03/18 05:17:40;;;;;;;46.90;15.00;;;;;;;38.13;45.28;100684.34;5073629;28;20433;-72
2022/03/18 05:20:10;;;;;;;45.93;13.97;;;;;;;38.26;45.14;100688.09;5074230;28;20400;-72
2022/03/18 05:22:36;;;;;;;32.40;13.83;;;;;;;38.21;44.81;100685.50;5073698;28;20493;-73
2022/03/18 05:25:03;;;;;;;28.43;13.80;;;;;;;38.16;44.61;100691.84;5073826;28;21001;-72
2022/03/18 05:27:29;;;;;;;38.93;12.97;;;;;;;38.08;44.98;100689.91;5057208;28;20464;-74
2022/03/18 05:29:55;;;;;;;24.87;10.37;;;;;;;38.15;45.01;100690.25;5091449;28;20412;-74
2022/03/18 05:32:22;;;;;;;39.97;13.50;;;;;;;37.99;45.70;100689.03;5073588;28;20958;-73
2022/03/18 05:34:48;;;;;;;32.20;14.53;;;;;;;37.93;44.79;100693.00;5091863;28;20450;-72
2022/03/18 05:37:14;;;;;;;32.80;11.80;;;;;;;38.07;44.76;100691.03;5075415;28;20424;-73
2022/03/18 05:39:41;;;;;;;28.53;14.10;;;;;;;38.04;44.49;100694.34;5077470;28;20582;-72
2022/03/18 05:42:08;;;;;;;35.13;12.57;;;;;;;38.16;44.65;100696.47;5077090;28;20456;-71
2022/03/18 05:44:34;;;;;;;34.90;16.33;;;;;;;38.20;44.82;100691.22;5077318;28;20822;-74
2022/03/18 05:47:00;;;;;;;39.97;13.77;;;;;;;38.04;45.23;100704.38;5077365;28;20500;-72
2022/03/18 05:49:26;;;;;;;40.57;16.07;;;;;;;38.20;45.04;100712.91;5095715;28;20401;-72
2022/03/18 05:51:53;;;;;;;32.63;13.77;;;;;;;38.39;44.43;100713.50;5077471;28;20404;-72
2022/03/18 05:54:19;;;;;;;33.37;13.60;;;;;;;38.22;44.52;100718.81;5095320;28;20428;-72
2022/03/18 05:56:54;;;;;;;41.83;13.07;;;;;;;38.21;44.13;100718.00;5076899;28;20469;-74
2022/03/18 05:59:28;;;;;;;41.00;14.10;;;;;;;38.28;44.25;100725.72;5061933;28;20546;-71
2022/03/18 06:01:56;;;;;;;33.37;14.47;;;;;;;38.20;43.56;100727.25;5050693;28;20410;-72
2022/03/18 06:04:22;;;;;;;33.77;13.83;;;;;;;38.21;43.52;100728.03;5054020;28;20477;-71
2022/03/18 06:06:49;;;;;;;30.97;11.57;;;;;;;38.31;44.12;100733.22;5046932;28;20433;-74
2022/03/18 06:12:01;;;;;;;43.30;15.77;;;;;;;38.34;43.04;100748.84;5053628;28;20973;-74
2022/03/18 06:14:29;;;;;;;30.87;13.97;;;;;;;38.38;43.22;100747.94;5052084;28;21205;-73
2022/03/18 06:16:58;;;;;;;40.27;13.53;;;;;;;38.26;44.16;100752.28;5035164;28;20421;-73
2022/03/18 06:19:25;;;;;;;33.67;12.47;;;;;;;38.43;43.70;100755.91;5052354;28;20457;-74
2022/03/18 06:21:52;;;;;;;30.83;15.57;;;;;;;38.47;43.22;100763.41;5053863;28;21135;-73
2022/03/18 06:24:20;;;;;;;46.00;15.40;;;;;;;38.31;44.52;100769.25;5073722;28;20405;-73
2022/03/18 06:26:47;;;;;;;35.47;13.10;;;;;;;38.40;44.39;100772.78;5074901;28;20412;-73
2022/03/18 06:29:14;;;;;;;45.10;17.30;;;;;;;38.31;43.78;100780.09;5092982;28;20420;-73
2022/03/18 06:31:40;;;;;;;31.87;12.33;;;;;;;38.42;43.53;100777.88;5074893;28;20420;-73
2022/03/18 06:34:08;;;;;;;35.80;13.80;;;;;;;38.44;44.45;100773.78;5074354;28;20988;-73
2022/03/18 06:36:35;;;;;;;53.83;15.40;;;;;;;38.46;44.10;100781.59;5091848;28;20776;-74
2022/03/18 06:39:05;;;;;;;33.07;13.70;;;;;;;38.31;44.31;100787.41;5075164;28;20452;-74
2022/03/18 06:41:31;;;;;;;29.87;13.53;;;;;;;38.41;44.23;100784.44;5075684;28;20405;-74
2022/03/18 06:43:57;;;;;;;27.77;13.20;;;;;;;38.53;44.16;100786.56;5075516;28;20427;-73
2022/03/18 06:46:24;;;;;;;45.73;12.63;;;;;;;38.58;43.82;100789.94;5075103;28;20492;-73
2022/03/18 06:48:51;;;;;;;43.03;14.43;;;;;;;38.62;43.85;100804.47;5092866;28;20941;-73
2022/03/18 06:51:18;;;;;;;32.90;14.40;;;;;;;38.70;43.36;100808.31;5076364;28;20507;-71
2022/03/18 06:53:44;;;;;;;43.93;14.13;;;;;;;38.70;43.30;100814.53;5074278;28;20419;-75
2022/03/18 06:56:12;;;;;;;34.27;12.83;;;;;;;38.58;44.01;100821.66;5064999;28;20823;-72
2022/03/18 06:58:38;;;;;;;22.37;11.83;;;;;;;38.66;43.94;100834.44;5093971;28;20453;-73
2022/03/18 07:01:05;;;;;;;33.50;11.63;;;;;;;38.71;44.15;100837.03;5074881;28;20600;-72
2022/03/18 07:03:31;;;;;;;37.53;16.30;;;;;;;38.69;44.24;100840.06;5074517;28;20445;-72
2022/03/18 07:05:57;;;;;;;35.80;15.07;;;;;;;38.76;44.03;100841.56;5073257;28;20443;-72
2022/03/18 07:08:24;;;;;;;31.87;12.70;;;;;;;38.69;44.36;100839.25;5073903;28;20421;-72
2022/03/18 07:10:52;;;;;;;36.70;14.63;;;;;;;38.64;44.38;100839.41;5092643;28;20436;-75
2022/03/18 07:13:18;;;;;;;43.93;13.77;;;;;;;38.65;44.04;100849.91;5074336;28;20486;-73
2022/03/18 07:15:44;;;;;;;38.70;12.63;;;;;;;38.69;44.02;100853.63;5074449;28;20416;-74
2022/03/18 07:18:11;;;;;;;34.87;12.83;;;;;;;38.50;44.03;100853.03;5074097;28;20882;-73
2022/03/18 07:20:38;;;;;;;31.73;13.53;;;;;;;38.65;43.82;100858.06;5092342;28;20416;-77
2022/03/18 07:23:10;;;;;;;32.83;13.70;;;;;;;38.77;43.52;100857.50;5074224;28;20437;-73
2022/03/18 07:25:47;;;;;;;37.53;12.13;;;;;;;38.80;43.82;100866.94;5090257;28;20454;-74
2022/03/18 07:28:16;;;;;;;43.37;12.20;;;;;;;38.74;43.67;100876.31;5075530;28;20451;-73
2022/03/18 07:30:44;;;;;;;30.43;13.77;;;;;;;38.84;43.70;100873.31;5090802;28;20409;-74
2022/03/18 07:33:11;;;;;;;29.27;13.70;;;;;;;38.75;43.74;100876.00;5074268;28;20508;-74
2022/03/18 07:35:38;;;;;;;32.40;12.73;;;;;;;38.78;43.63;100878.09;5073903;28;20974;-76
2022/03/18 07:38:08;;;;;;;43.37;16.50;;;;;;;38.60;43.80;100889.91;5074476;28;20488;-72
2022/03/18 07:40:36;;;;;;;35.70;15.50;;;;;;;38.76;43.89;100893.88;5074722;28;20449;-72
2022/03/18 07:43:02;;;;;;;48.60;25.33;;;;;;;38.60;44.46;100901.56;5057193;28;20424;-73
2022/03/18 07:45:30;;;;;;;50.60;28.77;;;;;;;38.53;44.73;100901.19;5073870;28;20424;-74
2022/03/18 07:47:59;;;;;;;60.60;25.47;;;;;;;38.57;44.86;100895.97;5056961;28;20814;-74
2022/03/18 07:50:49;;;;;;;61.00;30.70;;;;;;;38.35;45.00;100894.06;5074042;28;20424;-72
2022/03/18 07:53:16;;;;;;;41.83;28.10;;;;;;;38.43;44.89;100898.75;5073326;28;20868;-72
2022/03/18 07:55:42;;;;;;;55.03;35.07;;;;;;;38.57;44.74;100899.47;5091743;28;20483;-72
2022/03/18 07:58:08;;;;;;;59.53;33.73;;;;;;;38.66;44.47;100900.31;5074813;28;20888;-72
2022/03/18 08:00:36;;;;;;;52.40;30.87;;;;;;;38.85;44.08;100896.63;5092935;28;20528;-72
2022/03/18 08:03:03;;;;;;;57.37;27.73;;;;;;;38.86;44.31;100900.94;5074910;28;20423;-72
2022/03/18 08:05:30;;;;;;;59.70;27.30;;;;;;;38.57;44.71;100913.03;5074607;28;20963;-72
2022/03/18 08:07:57;;;;;;;56.20;26.57;;;;;;;38.51;45.10;100911.56;5073674;28;20409;-71
2022/03/18 08:10:23;;;;;;;56.13;22.27;;;;;;;38.73;44.52;100912.66;5057162;28;20516;-71
2022/03/18 08:12:49;;;;;;;41.90;22.73;;;;;;;38.61;44.76;100919.44;5074371;28;20520;-72
2022/03/18 08:15:18;;;;;;;47.03;23.67;;;;;;;38.74;44.58;100911.56;5074655;28;20832;-73
2022/03/18 08:17:44;;;;;;;42.83;25.43;;;;;;;38.90;44.16;100910.03;5074696;28;20421;-74
2022/03/18 08:20:13;;;;;;;51.33;27.27;;;;;;;38.96;44.13;100916.94;5092835;28;20437;-74
2022/03/18 08:22:40;;;;;;;59.13;28.13;;;;;;;38.74;44.62;100920.50;5092499;28;20444;-72
2022/03/18 08:25:08;;;;;;;44.17;21.77;;;;;;;38.50;44.77;100915.38;5073873;28;20453;-72
2022/03/18 08:27:34;;;;;;;39.33;20.50;;;;;;;38.62;44.39;100910.19;5073780;28;20468;-73
2022/03/18 08:30:03;;;;;;;35.07;20.27;;;;;;;38.56;44.69;100916.84;5074003;28;20448;-72
2022/03/18 08:32:29;;;;;;;37.73;22.60;;;;;;;38.39;45.25;100912.09;5089218;28;20409;-72
2022/03/18 08:34:56;;;;;;;42.27;21.43;;;;;;;38.70;44.30;100923.00;5073610;28;20413;-72
2022/03/18 08:37:57;;;;;;;34.27;16.43;;;;;;;38.87;44.14;100927.75;5091962;28;20911;-73
2022/03/18 08:40:16;;;;;;;34.60;16.57;;;;;;;39.06;43.21;100930.22;5088362;28;20431;-74
2022/03/18 08:42:42;;;;;;;33.23;16.20;;;;;;;38.91;43.71;100931.41;5073490;28;20441;-73
2022/03/18 08:45:09;;;;;;;42.67;15.97;;;;;;;38.88;43.60;100921.22;5073937;28;20421;-73
2022/03/18 08:47:35;;;;;;;40.27;17.70;;;;;;;38.79;43.88;100930.41;5074199;28;20425;-73
2022/03/18 08:50:02;;;;;;;29.37;12.90;;;;;;;38.93;43.47;100925.72;5074235;28;20423;-71
2022/03/18 08:52:28;;;;;;;30.53;14.67;;;;;;;38.90;43.42;100924.41;5092474;28;20476;-72
2022/03/18 08:54:55;;;;;;;28.33;12.70;;;;;;;39.12;43.12;100928.19;5073600;28;20480;-73
2022/03/18 08:57:21;;;;;;;43.63;14.57;;;;;;;39.13;42.88;100929.78;5091865;28;20428;-74
2022/03/18 08:59:47;;;;;;;27.20;16.57;;;;;;;38.94;43.46;100932.72;5073373;28;20559;-74
2022/03/18 09:02:13;;;;;;;35.60;18.00;;;;;;;39.14;43.26;100931.38;5073542;28;20425;-74
2022/03/18 09:04:39;;;;;;;36.30;16.80;;;;;;;38.96;43.58;100922.34;5073949;28;20507;-73
2022/03/18 09:07:05;;;;;;;32.23;14.83;;;;;;;39.12;43.18;100933.59;5073954;28;20416;-73
2022/03/18 09:09:31;;;;;;;47.37;17.10;;;;;;;39.03;43.44;100935.47;5073888;28;20423;-82
2022/03/18 09:11:57;;;;;;;47.13;18.07;;;;;;;38.61;44.18;100933.00;5073653;28;20467;-75
2022/03/18 09:14:23;;;;;;;34.93;16.90;;;;;;;38.82;43.95;100940.63;5091505;28;20420;-75
2022/03/18 09:16:50;;;;;;;32.23;14.83;;;;;;;38.75;44.09;100943.00;5073945;28;20923;-71
2022/03/18 09:19:16;;;;;;;46.40;18.33;;;;;;;38.96;43.64;100942.13;5074012;28;20506;-71
2022/03/18 09:21:42;;;;;;;30.17;14.57;;;;;;;39.07;43.39;100941.88;5057417;28;20520;-69
2022/03/18 09:24:08;;;;;;;33.70;14.77;;;;;;;39.25;43.11;100942.78;5073840;28;20412;-69
2022/03/18 09:26:35;;;;;;;37.00;14.67;;;;;;;39.28;43.28;100940.22;5091627;28;20431;-69
2022/03/18 09:29:01;;;;;;;38.83;16.73;;;;;;;39.30;43.19;100937.22;5073465;28;20413;-70
2022/03/18 09:31:27;;;;;;;38.27;14.90;;;;;;;38.99;43.10;100935.31;5092007;28;20409;-69
2022/03/18 09:33:53;;;;;;;37.83;13.17;;;;;;;39.21;43.20;100931.75;5073564;28;20445;-71
2022/03/18 09:36:19;;;;;;;33.07;12.73;;;;;;;39.37;43.17;100935.66;5073811;28;20417;-69
2022/03/18 09:38:47;;;;;;;25.80;12.67;;;;;;;39.20;43.26;100941.81;5073480;28;20456;-69
2022/03/18 09:41:13;;;;;;;29.77;13.77;;;;;;;39.14;43.34;100931.38;5073572;28;20845;-69
2022/03/18 09:43:40;;;;;;;30.93;12.90;;;;;;;39.01;43.35;100932.28;5091628;28;20977;-71
2022/03/18 09:46:08;;;;;;;40.03;16.80;;;;;;;39.25;43.00;100932.72;5072495;28;20444;-70
2022/03/18 09:48:36;;;;;;;34.80;12.50;;;;;;;39.11;42.77;100935.53;5072670;28;20467;-74
2022/03/18 09:51:02;;;;;;;44.97;12.40;;;;;;;39.04;43.48;100937.06;5072664;28;20463;-74
2022/03/18 09:53:28;;;;;;;36.90;15.60;;;;;;;39.15;43.31;100936.47;5073307;28;20432;-73
2022/03/18 09:55:54;;;;;;;45.47;16.47;;;;;;;39.09;43.43;100935.03;5090084;28;20974;-71
2022/03/18 09:58:22;;;;;;;22.13;12.80;;;;;;;39.25;43.05;100923.78;5090245;28;20452;-71
2022/03/18 10:00:51;;;;;;;29.93;11.80;;;;;;;39.31;42.57;100933.41;5056035;28;20935;-70
2022/03/18 10:03:21;;;;;;;35.30;13.10;;;;;;;39.47;42.71;100932.66;5073209;28;20520;-70
2022/03/18 10:06:03;;;;;;;29.03;12.27;;;;;;;39.25;42.71;100923.78;5057221;28;20424;-71
2022/03/18 10:08:36;;;;;;;30.20;11.57;;;;;;;39.39;42.66;100929.91;5074611;28;20484;-70
2022/03/18 10:11:26;;;;;;;34.07;12.33;;;;;;;39.43;42.49;100920.81;5073256;28;20443;-72
2022/03/18 10:14:09;;;;;;;26.37;13.17;;;;;;;39.27;43.45;100918.84;5090217;28;20466;-70
2022/03/18 10:16:37;;;;;;;34.40;13.37;;;;;;;39.38;42.77;100917.44;5056907;28;20925;-71
2022/03/18 10:19:10;;;;;;;32.67;14.77;;;;;;;39.41;42.38;100916.81;5056562;28;20460;-71
2022/03/18 10:22:10;;;;;;;46.63;13.60;;;;;;;39.39;42.80;100916.31;5057517;28;20864;-70
2022/03/18 10:24:38;;;;;;;30.10;13.43;;;;;;;39.27;42.89;100908.78;5022517;28;20971;-70
2022/03/18 10:27:15;;;;;;;35.07;12.60;;;;;;;39.43;42.58;100904.53;5076844;28;20428;-72
2022/03/18 10:29:43;;;;;;;38.37;13.73;;;;;;;39.41;42.80;100903.22;5076280;28;20420;-71
2022/03/18 10:32:11;;;;;;;29.83;11.40;;;;;;;39.18;43.01;100900.63;5073579;28;20479;-72
2022/03/18 10:37:50;;;;;;;27.10;14.03;;;;;;;39.27;42.92;100889.00;5101602;28;20441;-75
2022/03/18 10:40:18;;;;;;;31.90;12.10;;;;;;;39.39;43.09;100892.69;5074082;28;20429;-72
2022/03/18 10:43:02;;;;;;;35.10;12.00;;;;;;;39.57;42.35;100890.03;5074941;28;20424;-72
2022/03/18 10:49:07;;;;;;;24.47;10.50;;;;;;;39.54;42.19;100880.63;5084441;28;20438;-73
2022/03/18 10:51:34;;;;;;;37.47;13.50;;;;;;;39.35;42.76;100888.22;5088951;28;20425;-71
2022/03/18 10:54:00;;;;;;;27.57;11.10;;;;;;;39.26;42.74;100882.78;5074884;28;20424;-71
2022/03/18 10:56:27;;;;;;;39.60;16.37;;;;;;;39.49;42.50;100886.19;5074413;28;20472;-73
2022/03/18 10:58:53;;;;;;;31.73;11.63;;;;;;;39.61;42.41;100877.47;5088999;28;20444;-73
2022/03/18 11:01:21;;;;;;;33.30;11.47;;;;;;;39.59;42.11;100877.72;5074708;28;20970;-72
2022/03/18 11:03:47;;;;;;;37.03;12.23;;;;;;;39.78;42.09;100869.34;5074565;28;21476;-72
2022/03/18 11:06:17;;;;;;;29.53;17.17;;;;;;;39.81;42.22;100873.31;5089898;28;20425;-71
2022/03/18 11:08:49;;;;;;;28.97;14.60;;;;;;;39.57;42.49;100858.25;5075648;28;20405;-71
2022/03/18 11:11:22;;;;;;;30.60;13.93;;;;;;;39.62;42.54;100862.75;5075579;28;20412;-71
2022/03/18 11:14:06;;;;;;;39.53;12.60;;;;;;;39.49;42.62;100850.91;5072233;28;20919;-71
2022/03/18 11:16:36;;;;;;;28.03;13.17;;;;;;;39.66;42.29;100856.38;5072261;28;20445;-71
2022/03/18 11:19:08;;;;;;;24.87;13.03;;;;;;;39.43;42.34;100852.97;5075537;28;20471;-72
2022/03/18 11:21:36;;;;;;;31.33;13.53;;;;;;;39.57;42.32;100844.66;5059767;28;20420;-72
2022/03/18 11:24:08;;;;;;;38.83;11.07;;;;;;;39.41;42.22;100838.91;5059283;28;20421;-73
2022/03/18 11:26:36;;;;;;;33.63;11.50;;;;;;;39.66;42.09;100836.59;5074747;28;21041;-71
2022/03/18 11:29:24;;;;;;;52.17;13.00;;;;;;;39.44;42.52;100829.34;5063559;28;20986;-73
2022/03/18 11:32:20;;;;;;;26.67;10.60;;;;;;;39.68;42.17;100824.28;5073183;28;20459;-73
2022/03/18 11:34:46;;;;;;;29.33;10.43;;;;;;;39.76;41.87;100818.03;5090228;28;20392;-72